Meigs, Georgia
Current Conditions -  °F | °C
As of 9:55 PM on Friday 21 Nov 2014 (Local Time) from KTVI Reporting Station
Clear Clear  
Wind Chill: 50°   Ceiling: Unl
Heat Index: 50°   Visibility: 10mi
Dew Point: 37°   Wind: 3mph
Humidity: 62%   Direction: 70°ENE
Pressure: 30.37"   Gusts: NA
Location:  31.07°N, 84.09°W
Report Text: KTVI 220255Z AUTO 07003KT 10SM CLR 10/03 A3037 RMK AO2
Loading
Personal Weather Stations






























Interactive Weather Map New forecast layout! Learn more

10-Day Weather Forecast

Advertisements
Track Severe Weather on mobile